sensor_id;sensor_type;location;lat;lon;timestamp;pressure;altitude;pressure_sealevel;temperature;humidity
35307;BME280;21420;52.196;21.416;2023-04-20T00:00:45;100561.09;;;9.02;61.18
35307;BME280;21420;52.196;21.416;2023-04-20T00:03:13;100560.14;;;9.03;61.38
35307;BME280;21420;52.196;21.416;2023-04-20T00:05:40;100559.54;;;9.05;61.36
35307;BME280;21420;52.196;21.416;2023-04-20T00:08:06;100559.34;;;9.06;61.60
35307;BME280;21420;52.196;21.416;2023-04-20T00:10:33;100556.60;;;9.06;61.56
35307;BME280;21420;52.196;21.416;2023-04-20T00:13:00;100555.27;;;9.06;61.48
35307;BME280;21420;52.196;21.416;2023-04-20T00:15:26;100554.20;;;9.05;61.57
35307;BME280;21420;52.196;21.416;2023-04-20T00:17:53;100555.09;;;9.02;61.35
35307;BME280;21420;52.196;21.416;2023-04-20T00:20:19;100556.31;;;9.00;61.39
35307;BME280;21420;52.196;21.416;2023-04-20T00:22:46;100555.83;;;8.98;61.58
35307;BME280;21420;52.196;21.416;2023-04-20T00:25:13;100554.70;;;8.97;61.50
35307;BME280;21420;52.196;21.416;2023-04-20T00:27:39;100557.26;;;8.97;61.51
35307;BME280;21420;52.196;21.416;2023-04-20T00:30:06;100557.23;;;8.98;61.75
35307;BME280;21420;52.196;21.416;2023-04-20T00:32:34;100558.11;;;9.00;61.84
35307;BME280;21420;52.196;21.416;2023-04-20T00:35:01;100555.70;;;9.00;61.63
35307;BME280;21420;52.196;21.416;2023-04-20T00:37:28;100554.60;;;9.02;61.93
35307;BME280;21420;52.196;21.416;2023-04-20T00:39:56;100553.60;;;9.02;61.87
35307;BME280;21420;52.196;21.416;2023-04-20T00:42:23;100555.86;;;9.02;61.87
35307;BME280;21420;52.196;21.416;2023-04-20T00:44:50;100556.05;;;9.01;61.65
35307;BME280;21420;52.196;21.416;2023-04-20T00:47:16;100557.38;;;9.01;61.72
35307;BME280;21420;52.196;21.416;2023-04-20T00:49:43;100559.48;;;9.01;61.89
35307;BME280;21420;52.196;21.416;2023-04-20T00:52:10;100556.83;;;9.03;61.92
35307;BME280;21420;52.196;21.416;2023-04-20T00:54:37;100556.95;;;9.05;62.00
35307;BME280;21420;52.196;21.416;2023-04-20T00:57:04;100557.85;;;9.08;61.94
35307;BME280;21420;52.196;21.416;2023-04-20T00:59:33;100556.99;;;9.11;61.84
35307;BME280;21420;52.196;21.416;2023-04-20T01:01:59;100554.09;;;9.14;61.84
35307;BME280;21420;52.196;21.416;2023-04-20T01:04:27;100548.05;;;9.17;61.74
35307;BME280;21420;52.196;21.416;2023-04-20T01:06:57;100549.87;;;9.20;61.93
35307;BME280;21420;52.196;21.416;2023-04-20T01:09:23;100549.46;;;9.23;62.22
35307;BME280;21420;52.196;21.416;2023-04-20T01:11:50;100554.34;;;9.24;62.13
35307;BME280;21420;52.196;21.416;2023-04-20T01:14:16;100556.70;;;9.26;62.03
35307;BME280;21420;52.196;21.416;2023-04-20T01:16:43;100555.69;;;9.26;61.80
35307;BME280;21420;52.196;21.416;2023-04-20T01:19:11;100550.42;;;9.25;62.13
35307;BME280;21420;52.196;21.416;2023-04-20T01:21:37;100552.10;;;9.26;62.06
35307;BME280;21420;52.196;21.416;2023-04-20T01:24:04;100554.45;;;9.28;62.14
35307;BME280;21420;52.196;21.416;2023-04-20T01:26:31;100556.15;;;9.28;61.91
35307;BME280;21420;52.196;21.416;2023-04-20T01:28:58;100553.73;;;9.28;62.01
35307;BME280;21420;52.196;21.416;2023-04-20T01:31:24;100550.03;;;9.31;62.11
35307;BME280;21420;52.196;21.416;2023-04-20T01:33:51;100547.88;;;9.33;61.99
35307;BME280;21420;52.196;21.416;2023-04-20T01:36:19;100547.86;;;9.34;62.14
35307;BME280;21420;52.196;21.416;2023-04-20T01:38:47;100547.68;;;9.36;62.23
35307;BME280;21420;52.196;21.416;2023-04-20T01:41:14;100546.71;;;9.37;62.12
35307;BME280;21420;52.196;21.416;2023-04-20T01:43:41;100545.58;;;9.38;62.06
35307;BME280;21420;52.196;21.416;2023-04-20T01:46:10;100546.33;;;9.37;62.00
35307;BME280;21420;52.196;21.416;2023-04-20T01:48:38;100543.63;;;9.37;62.12
35307;BME280;21420;52.196;21.416;2023-04-20T01:51:05;100543.36;;;9.37;62.16
35307;BME280;21420;52.196;21.416;2023-04-20T01:53:31;100543.39;;;9.38;62.17
35307;BME280;21420;52.196;21.416;2023-04-20T01:55:58;100543.30;;;9.41;62.24
35307;BME280;21420;52.196;21.416;2023-04-20T01:58:24;100543.71;;;9.42;62.23
35307;BME280;21420;52.196;21.416;2023-04-20T02:00:51;100539.83;;;9.40;62.35
35307;BME280;21420;52.196;21.416;2023-04-20T02:03:18;100542.85;;;9.40;62.14
35307;BME280;21420;52.196;21.416;2023-04-20T02:05:45;100544.43;;;9.42;62.29
35307;BME280;21420;52.196;21.416;2023-04-20T02:08:12;100542.79;;;9.42;62.33
35307;BME280;21420;52.196;21.416;2023-04-20T02:10:39;100544.41;;;9.40;62.09
35307;BME280;21420;52.196;21.416;2023-04-20T02:13:07;100543.95;;;9.40;62.07
35307;BME280;21420;52.196;21.416;2023-04-20T02:19:00;100539.52;;;9.38;62.38
35307;BME280;21420;52.196;21.416;2023-04-20T02:21:27;100539.10;;;9.37;62.42
35307;BME280;21420;52.196;21.416;2023-04-20T02:23:53;100540.73;;;9.37;62.39
35307;BME280;21420;52.196;21.416;2023-04-20T02:26:20;100542.77;;;9.37;62.35
35307;BME280;21420;52.196;21.416;2023-04-20T02:28:46;100540.19;;;9.37;62.42
35307;BME280;21420;52.196;21.416;2023-04-20T02:31:13;100545.39;;;9.39;62.42
35307;BME280;21420;52.196;21.416;2023-04-20T02:33:46;100546.29;;;9.40;62.37
35307;BME280;21420;52.196;21.416;2023-04-20T02:36:28;100548.25;;;9.42;62.49
35307;BME280;21420;52.196;21.416;2023-04-20T02:38:55;100545.16;;;9.44;62.56
35307;BME280;21420;52.196;21.416;2023-04-20T02:41:21;100543.87;;;9.47;62.59
35307;BME280;21420;52.196;21.416;2023-04-20T02:43:48;100548.21;;;9.50;62.62
35307;BME280;21420;52.196;21.416;2023-04-20T02:46:16;100547.86;;;9.50;62.64
35307;BME280;21420;52.196;21.416;2023-04-20T02:48:42;100548.56;;;9.51;62.64
35307;BME280;21420;52.196;21.416;2023-04-20T02:51:09;100549.56;;;9.50;62.53
35307;BME280;21420;52.196;21.416;2023-04-20T02:53:41;100549.32;;;9.50;62.48
35307;BME280;21420;52.196;21.416;2023-04-20T02:56:15;100550.92;;;9.51;62.67
35307;BME280;21420;52.196;21.416;2023-04-20T02:58:45;100550.90;;;9.52;62.59
35307;BME280;21420;52.196;21.416;2023-04-20T03:01:22;100546.89;;;9.50;62.53
35307;BME280;21420;52.196;21.416;2023-04-20T03:03:56;100545.09;;;9.50;62.56
35307;BME280;21420;52.196;21.416;2023-04-20T03:06:23;100547.46;;;9.51;62.65
35307;BME280;21420;52.196;21.416;2023-04-20T03:08:52;100549.74;;;9.51;62.60
35307;BME280;21420;52.196;21.416;2023-04-20T03:11:38;100549.38;;;9.49;62.63
35307;BME280;21420;52.196;21.416;2023-04-20T03:14:04;100549.08;;;9.48;62.63
35307;BME280;21420;52.196;21.416;2023-04-20T03:16:32;100549.17;;;9.45;62.58
35307;BME280;21420;52.196;21.416;2023-04-20T03:18:58;100552.01;;;9.42;62.57
35307;BME280;21420;52.196;21.416;2023-04-20T03:21:25;100553.61;;;9.39;62.60
35307;BME280;21420;52.196;21.416;2023-04-20T03:23:52;100553.98;;;9.37;62.55
35307;BME280;21420;52.196;21.416;2023-04-20T03:26:19;100553.76;;;9.34;62.53
35307;BME280;21420;52.196;21.416;2023-04-20T03:29:04;100560.29;;;9.30;62.58
35307;BME280;21420;52.196;21.416;2023-04-20T03:31:31;100561.34;;;9.29;62.68
35307;BME280;21420;52.196;21.416;2023-04-20T03:33:58;100559.58;;;9.29;62.67
35307;BME280;21420;52.196;21.416;2023-04-20T03:36:25;100562.05;;;9.29;62.68
35307;BME280;21420;52.196;21.416;2023-04-20T03:38:54;100561.91;;;9.30;62.66
35307;BME280;21420;52.196;21.416;2023-04-20T03:41:21;100563.09;;;9.28;62.63
35307;BME280;21420;52.196;21.416;2023-04-20T03:43:48;100565.50;;;9.27;62.75
35307;BME280;21420;52.196;21.416;2023-04-20T03:46:15;100569.27;;;9.26;62.67
35307;BME280;21420;52.196;21.416;2023-04-20T03:48:43;100567.65;;;9.25;62.68
35307;BME280;21420;52.196;21.416;2023-04-20T03:51:09;100569.29;;;9.25;62.69
35307;BME280;21420;52.196;21.416;2023-04-20T03:53:36;100568.86;;;9.24;62.74
35307;BME280;21420;52.196;21.416;2023-04-20T03:56:06;100571.58;;;9.24;62.77
35307;BME280;21420;52.196;21.416;2023-04-20T03:58:33;100574.22;;;9.23;62.68
35307;BME280;21420;52.196;21.416;2023-04-20T04:01:08;100573.89;;;9.25;62.79
35307;BME280;21420;52.196;21.416;2023-04-20T04:03:37;100575.43;;;9.26;62.82
35307;BME280;21420;52.196;21.416;2023-04-20T04:06:04;100577.04;;;9.27;62.94
35307;BME280;21420;52.196;21.416;2023-04-20T04:08:32;100576.11;;;9.29;62.88
35307;BME280;21420;52.196;21.416;2023-04-20T04:10:59;100572.73;;;9.34;62.94
35307;BME280;21420;52.196;21.416;2023-04-20T04:13:26;100567.83;;;9.40;63.05
35307;BME280;21420;52.196;21.416;2023-04-20T04:15:52;100567.41;;;9.46;63.03
35307;BME280;21420;52.196;21.416;2023-04-20T04:18:21;100573.71;;;9.52;63.00
35307;BME280;21420;52.196;21.416;2023-04-20T04:20:48;100580.57;;;9.58;62.98
35307;BME280;21420;52.196;21.416;2023-04-20T04:23:15;100582.81;;;9.63;62.98
35307;BME280;21420;52.196;21.416;2023-04-20T04:25:46;100581.71;;;9.68;63.05
35307;BME280;21420;52.196;21.416;2023-04-20T04:28:12;100583.84;;;9.75;63.04
35307;BME280;21420;52.196;21.416;2023-04-20T04:30:47;100587.84;;;9.83;63.11
35307;BME280;21420;52.196;21.416;2023-04-20T04:33:13;100590.13;;;9.93;63.18
35307;BME280;21420;52.196;21.416;2023-04-20T04:35:42;100590.47;;;10.03;63.30
35307;BME280;21420;52.196;21.416;2023-04-20T04:38:11;100588.08;;;10.13;63.33
35307;BME280;21420;52.196;21.416;2023-04-20T04:40:40;100589.11;;;10.23;63.20
35307;BME280;21420;52.196;21.416;2023-04-20T04:43:07;100592.23;;;10.30;63.23
35307;BME280;21420;52.196;21.416;2023-04-20T04:45:39;100600.48;;;10.36;63.06
35307;BME280;21420;52.196;21.416;2023-04-20T04:48:09;100602.13;;;10.37;63.07
35307;BME280;21420;52.196;21.416;2023-04-20T04:50:38;100605.47;;;10.42;63.18
35307;BME280;21420;52.196;21.416;2023-04-20T04:53:05;100606.30;;;10.53;63.37
35307;BME280;21420;52.196;21.416;2023-04-20T04:55:32;100609.18;;;10.63;63.44
35307;BME280;21420;52.196;21.416;2023-04-20T04:57:59;100611.92;;;10.69;63.19
35307;BME280;21420;52.196;21.416;2023-04-20T05:00:27;100615.66;;;10.68;63.17
35307;BME280;21420;52.196;21.416;2023-04-20T05:02:54;100616.94;;;10.65;63.11
35307;BME280;21420;52.196;21.416;2023-04-20T05:05:21;100619.52;;;10.60;63.12
35307;BME280;21420;52.196;21.416;2023-04-20T05:07:48;100617.42;;;10.59;63.05
35307;BME280;21420;52.196;21.416;2023-04-20T05:10:15;100616.39;;;10.59;63.09
35307;BME280;21420;52.196;21.416;2023-04-20T05:12:41;100618.87;;;10.58;63.01
35307;BME280;21420;52.196;21.416;2023-04-20T05:15:08;100622.93;;;10.58;63.07
35307;BME280;21420;52.196;21.416;2023-04-20T05:17:35;100621.84;;;10.58;63.13
35307;BME280;21420;52.196;21.416;2023-04-20T05:20:02;100627.49;;;10.60;63.11
35307;BME280;21420;52.196;21.416;2023-04-20T05:22:31;100629.52;;;10.62;63.13
35307;BME280;21420;52.196;21.416;2023-04-20T05:24:58;100629.27;;;10.66;63.15
35307;BME280;21420;52.196;21.416;2023-04-20T05:27:24;100628.33;;;10.72;63.23
35307;BME280;21420;52.196;21.416;2023-04-20T05:29:51;100628.51;;;10.76;63.13
35307;BME280;21420;52.196;21.416;2023-04-20T05:32:17;100628.52;;;10.82;63.09
35307;BME280;21420;52.196;21.416;2023-04-20T05:34:44;100632.36;;;10.89;63.16
35307;BME280;21420;52.196;21.416;2023-04-20T05:37:11;100633.90;;;10.96;63.27
35307;BME280;21420;52.196;21.416;2023-04-20T05:39:38;100636.89;;;11.07;63.51
35307;BME280;21420;52.196;21.416;2023-04-20T05:42:05;100636.20;;;11.22;63.40
35307;BME280;21420;52.196;21.416;2023-04-20T05:44:32;100640.29;;;11.41;63.45
35307;BME280;21420;52.196;21.416;2023-04-20T05:46:59;100639.45;;;11.63;63.42
35307;BME280;21420;52.196;21.416;2023-04-20T05:49:25;100636.19;;;11.88;63.52
35307;BME280;21420;52.196;21.416;2023-04-20T05:51:52;100641.75;;;12.14;63.64
35307;BME280;21420;52.196;21.416;2023-04-20T05:54:19;100639.63;;;12.43;63.48
35307;BME280;21420;52.196;21.416;2023-04-20T05:56:45;100640.03;;;12.72;63.51
35307;BME280;21420;52.196;21.416;2023-04-20T05:59:12;100647.09;;;13.00;63.59
35307;BME280;21420;52.196;21.416;2023-04-20T06:01:38;100647.86;;;13.22;63.47
35307;BME280;21420;52.196;21.416;2023-04-20T06:04:05;100646.45;;;13.46;63.52
35307;BME280;21420;52.196;21.416;2023-04-20T06:06:32;100647.20;;;13.66;63.33
35307;BME280;21420;52.196;21.416;2023-04-20T06:08:59;100649.55;;;13.80;63.18
35307;BME280;21420;52.196;21.416;2023-04-20T06:11:26;100653.98;;;13.94;63.23
35307;BME280;21420;52.196;21.416;2023-04-20T06:13:53;100651.92;;;14.02;62.95
35307;BME280;21420;52.196;21.416;2023-04-20T06:16:19;100653.68;;;14.05;62.50
35307;BME280;21420;52.196;21.416;2023-04-20T06:18:46;100653.27;;;14.07;62.73
35307;BME280;21420;52.196;21.416;2023-04-20T06:21:13;100654.40;;;14.09;62.44
35307;BME280;21420;52.196;21.416;2023-04-20T06:23:42;100649.77;;;14.22;62.60
35307;BME280;21420;52.196;21.416;2023-04-20T06:26:10;100651.64;;;14.46;62.50
35307;BME280;21420;52.196;21.416;2023-04-20T06:28:37;100652.77;;;14.62;62.24
35307;BME280;21420;52.196;21.416;2023-04-20T06:31:04;100656.77;;;14.73;62.21
35307;BME280;21420;52.196;21.416;2023-04-20T06:33:31;100660.00;;;14.87;62.25
35307;BME280;21420;52.196;21.416;2023-04-20T06:35:58;100655.81;;;15.01;62.00
35307;BME280;21420;52.196;21.416;2023-04-20T06:38:25;100655.52;;;15.12;61.74
35307;BME280;21420;52.196;21.416;2023-04-20T06:40:51;100658.08;;;15.43;62.04
35307;BME280;21420;52.196;21.416;2023-04-20T06:43:18;100656.42;;;15.82;61.98
35307;BME280;21420;52.196;21.416;2023-04-20T06:45:45;100659.77;;;16.12;61.76
35307;BME280;21420;52.196;21.416;2023-04-20T06:48:12;100657.77;;;16.38;61.59
35307;BME280;21420;52.196;21.416;2023-04-20T06:50:56;100659.81;;;16.74;61.44
35307;BME280;21420;52.196;21.416;2023-04-20T06:53:23;100660.52;;;17.16;61.51
35307;BME280;21420;52.196;21.416;2023-04-20T06:55:52;100660.50;;;17.50;61.26
35307;BME280;21420;52.196;21.416;2023-04-20T06:58:20;100663.71;;;18.01;61.32
35307;BME280;21420;52.196;21.416;2023-04-20T07:00:47;100660.44;;;18.63;61.37
35307;BME280;21420;52.196;21.416;2023-04-20T07:03:13;100660.72;;;19.30;61.14
35307;BME280;21420;52.196;21.416;2023-04-20T07:05:40;100665.42;;;19.88;60.83
35307;BME280;21420;52.196;21.416;2023-04-20T07:08:07;100666.17;;;20.45;60.57
35307;BME280;21420;52.196;21.416;2023-04-20T07:10:34;100661.64;;;20.91;60.34
35307;BME280;21420;52.196;21.416;2023-04-20T07:13:01;100657.61;;;21.49;60.21
35307;BME280;21420;52.196;21.416;2023-04-20T07:15:28;100663.38;;;22.09;60.02
35307;BME280;21420;52.196;21.416;2023-04-20T07:17:54;100659.54;;;22.85;60.09
35307;BME280;21420;52.196;21.416;2023-04-20T07:20:21;100665.27;;;23.48;59.24
35307;BME280;21420;52.196;21.416;2023-04-20T07:22:48;100667.70;;;23.95;59.00
35307;BME280;21420;52.196;21.416;2023-04-20T07:25:14;100668.87;;;24.56;58.83
35307;BME280;21420;52.196;21.416;2023-04-20T07:27:43;100664.89;;;25.25;58.50
35307;BME280;21420;52.196;21.416;2023-04-20T07:30:10;100662.91;;;25.71;57.86
35307;BME280;21420;52.196;21.416;2023-04-20T07:32:38;100667.82;;;26.07;57.11
35307;BME280;21420;52.196;21.416;2023-04-20T07:35:06;100668.77;;;26.35;56.52
35307;BME280;21420;52.196;21.416;2023-04-20T07:37:33;100665.42;;;26.61;56.15
35307;BME280;21420;52.196;21.416;2023-04-20T07:39:59;100663.80;;;27.21;56.52
35307;BME280;21420;52.196;21.416;2023-04-20T07:42:28;100664.35;;;27.56;55.58
35307;BME280;21420;52.196;21.416;2023-04-20T07:44:55;100673.95;;;27.51;55.03
35307;BME280;21420;52.196;21.416;2023-04-20T07:47:21;100677.45;;;27.38;54.53
35307;BME280;21420;52.196;21.416;2023-04-20T07:49:48;100677.08;;;27.25;54.21
35307;BME280;21420;52.196;21.416;2023-04-20T07:52:15;100677.29;;;27.06;54.15
35307;BME280;21420;52.196;21.416;2023-04-20T07:54:44;100675.38;;;27.26;54.18
35307;BME280;21420;52.196;21.416;2023-04-20T07:57:11;100675.24;;;27.73;54.36
35307;BME280;21420;52.196;21.416;2023-04-20T07:59:38;100676.73;;;28.35;54.32
35307;BME280;21420;52.196;21.416;2023-04-20T08:02:06;100681.58;;;29.00;54.27
35307;BME280;21420;52.196;21.416;2023-04-20T08:04:37;100682.29;;;29.52;53.88
35307;BME280;21420;52.196;21.416;2023-04-20T08:07:04;100681.85;;;30.00;53.55
35307;BME280;21420;52.196;21.416;2023-04-20T08:09:31;100678.33;;;30.29;52.81
35307;BME280;21420;52.196;21.416;2023-04-20T08:11:58;100683.81;;;30.47;52.57
35307;BME280;21420;52.196;21.416;2023-04-20T08:14:26;100680.02;;;30.64;51.99
35307;BME280;21420;52.196;21.416;2023-04-20T08:16:53;100682.17;;;30.73;51.87
35307;BME280;21420;52.196;21.416;2023-04-20T08:19:19;100682.02;;;30.97;51.54
35307;BME280;21420;52.196;21.416;2023-04-20T08:21:46;100685.41;;;31.20;51.32
35307;BME280;21420;52.196;21.416;2023-04-20T08:24:13;100680.57;;;31.47;50.77
35307;BME280;21420;52.196;21.416;2023-04-20T08:26:41;100679.28;;;31.54;50.49
35307;BME280;21420;52.196;21.416;2023-04-20T08:29:09;100682.84;;;31.85;50.42
35307;BME280;21420;52.196;21.416;2023-04-20T08:31:35;100687.81;;;32.00;49.81
35307;BME280;21420;52.196;21.416;2023-04-20T08:34:02;100687.23;;;31.86;49.09
35307;BME280;21420;52.196;21.416;2023-04-20T08:36:29;100687.07;;;31.35;47.99
35307;BME280;21420;52.196;21.416;2023-04-20T08:39:12;100677.76;;;30.72;47.39
35307;BME280;21420;52.196;21.416;2023-04-20T08:41:40;100689.29;;;30.31;47.73
35307;BME280;21420;52.196;21.416;2023-04-20T08:44:07;100689.21;;;30.18;47.77
35307;BME280;21420;52.196;21.416;2023-04-20T08:46:35;100682.91;;;29.98;47.54
35307;BME280;21420;52.196;21.416;2023-04-20T08:49:03;100685.81;;;30.09;47.83
35307;BME280;21420;52.196;21.416;2023-04-20T08:51:29;100684.92;;;30.06;46.89
35307;BME280;21420;52.196;21.416;2023-04-20T08:54:02;100685.17;;;29.53;45.82
35307;BME280;21420;52.196;21.416;2023-04-20T08:56:42;100689.70;;;28.88;45.81
35307;BME280;21420;52.196;21.416;2023-04-20T08:59:10;100685.73;;;28.82;46.43
35307;BME280;21420;52.196;21.416;2023-04-20T09:01:39;100679.83;;;29.35;47.15
35307;BME280;21420;52.196;21.416;2023-04-20T09:04:24;100681.13;;;29.94;47.18
35307;BME280;21420;52.196;21.416;2023-04-20T09:06:55;100677.64;;;30.09;46.99
35307;BME280;21420;52.196;21.416;2023-04-20T09:09:23;100668.70;;;30.53;47.24
35307;BME280;21420;52.196;21.416;2023-04-20T09:12:05;100671.69;;;30.97;46.64
35307;BME280;21420;52.196;21.416;2023-04-20T09:14:43;100660.33;;;31.06;46.38
35307;BME280;21420;52.196;21.416;2023-04-20T09:17:10;100663.14;;;31.11;46.01
35307;BME280;21420;52.196;21.416;2023-04-20T09:19:40;100666.48;;;30.98;45.59
35307;BME280;21420;52.196;21.416;2023-04-20T09:22:06;100665.09;;;30.93;45.19
35307;BME280;21420;52.196;21.416;2023-04-20T09:24:35;100664.96;;;30.80;44.71
35307;BME280;21420;52.196;21.416;2023-04-20T09:27:15;100670.93;;;30.25;44.40
35307;BME280;21420;52.196;21.416;2023-04-20T09:29:42;100667.75;;;29.58;43.62
35307;BME280;21420;52.196;21.416;2023-04-20T09:32:22;100666.73;;;28.89;43.53
35307;BME280;21420;52.196;21.416;2023-04-20T09:34:49;100667.61;;;27.59;43.05
35307;BME280;21420;52.196;21.416;2023-04-20T09:37:16;100669.08;;;27.75;43.99
35307;BME280;21420;52.196;21.416;2023-04-20T09:39:44;100667.39;;;28.30;44.09
35307;BME280;21420;52.196;21.416;2023-04-20T09:42:13;100662.70;;;28.44;43.92
35307;BME280;21420;52.196;21.416;2023-04-20T09:44:40;100668.00;;;28.73;44.26
35307;BME280;21420;52.196;21.416;2023-04-20T09:47:07;100668.55;;;29.34;44.43
35307;BME280;21420;52.196;21.416;2023-04-20T09:49:39;100670.02;;;29.51;43.54
35307;BME280;21420;52.196;21.416;2023-04-20T09:52:07;100667.13;;;29.93;44.15
35307;BME280;21420;52.196;21.416;2023-04-20T09:54:35;100669.40;;;30.38;44.09
35307;BME280;21420;52.196;21.416;2023-04-20T09:57:02;100669.45;;;30.44;43.34
35307;BME280;21420;52.196;21.416;2023-04-20T09:59:32;100667.60;;;30.33;42.98
35307;BME280;21420;52.196;21.416;2023-04-20T10:01:58;100660.64;;;29.40;41.73
35307;BME280;21420;52.196;21.416;2023-04-20T10:04:25;100668.84;;;29.06;42.19
35307;BME280;21420;52.196;21.416;2023-04-20T10:06:54;100661.27;;;28.43;41.78
35307;BME280;21420;52.196;21.416;2023-04-20T10:09:23;100659.77;;;27.93;41.96
35307;BME280;21420;52.196;21.416;2023-04-20T10:12:05;100663.36;;;28.02;42.04
35307;BME280;21420;52.196;21.416;2023-04-20T10:14:32;100652.84;;;27.86;41.96
35307;BME280;21420;52.196;21.416;2023-04-20T10:19:36;100662.54;;;27.74;41.56
35307;BME280;21420;52.196;21.416;2023-04-20T10:22:05;100655.98;;;27.69;41.46
35307;BME280;21420;52.196;21.416;2023-04-20T10:24:32;100646.83;;;28.01;41.96
35307;BME280;21420;52.196;21.416;2023-04-20T10:26:59;100652.67;;;28.60;42.07
35307;BME280;21420;52.196;21.416;2023-04-20T10:29:26;100658.54;;;28.96;42.17
35307;BME280;21420;52.196;21.416;2023-04-20T10:31:54;100654.73;;;29.15;41.52
35307;BME280;21420;52.196;21.416;2023-04-20T10:34:34;100648.64;;;28.30;40.87
35307;BME280;21420;52.196;21.416;2023-04-20T10:37:10;100644.37;;;28.13;41.23
35307;BME280;21420;52.196;21.416;2023-04-20T10:39:45;100645.11;;;28.85;42.16
35307;BME280;21420;52.196;21.416;2023-04-20T10:42:12;100639.31;;;29.68;42.26
35307;BME280;21420;52.196;21.416;2023-04-20T10:44:47;100635.70;;;30.45;42.31
35307;BME280;21420;52.196;21.416;2023-04-20T10:47:14;100635.95;;;30.81;41.37
35307;BME280;21420;52.196;21.416;2023-04-20T10:49:40;100642.77;;;30.78;40.99
35307;BME280;21420;52.196;21.416;2023-04-20T10:52:07;100641.83;;;30.89;40.85
35307;BME280;21420;52.196;21.416;2023-04-20T10:54:38;100637.02;;;30.66;40.54
35307;BME280;21420;52.196;21.416;2023-04-20T10:57:05;100636.42;;;31.07;41.05
35307;BME280;21420;52.196;21.416;2023-04-20T10:59:32;100642.35;;;31.12;40.36
35307;BME280;21420;52.196;21.416;2023-04-20T11:02:07;100637.55;;;30.83;39.97
35307;BME280;21420;52.196;21.416;2023-04-20T11:04:36;100637.45;;;30.53;39.91
35307;BME280;21420;52.196;21.416;2023-04-20T11:07:05;100632.37;;;30.18;39.51
35307;BME280;21420;52.196;21.416;2023-04-20T11:09:32;100637.02;;;30.11;39.79
35307;BME280;21420;52.196;21.416;2023-04-20T11:12:04;100639.03;;;29.84;39.19
35307;BME280;21420;52.196;21.416;2023-04-20T11:14:33;100633.22;;;29.59;39.29
35307;BME280;21420;52.196;21.416;2023-04-20T11:17:01;100633.52;;;29.13;38.68
35307;BME280;21420;52.196;21.416;2023-04-20T11:19:32;100628.58;;;28.24;38.06
35307;BME280;21420;52.196;21.416;2023-04-20T11:22:00;100620.48;;;27.89;38.41
35307;BME280;21420;52.196;21.416;2023-04-20T11:24:29;100619.32;;;27.97;38.63
35307;BME280;21420;52.196;21.416;2023-04-20T11:26:57;100614.91;;;28.36;39.23
35307;BME280;21420;52.196;21.416;2023-04-20T11:29:28;100617.01;;;28.59;39.03
35307;BME280;21420;52.196;21.416;2023-04-20T11:31:56;100616.58;;;28.82;39.54
35307;BME280;21420;52.196;21.416;2023-04-20T11:34:23;100611.98;;;28.94;38.90
35307;BME280;21420;52.196;21.416;2023-04-20T11:36:49;100613.97;;;28.76;38.68
35307;BME280;21420;52.196;21.416;2023-04-20T11:39:26;100615.55;;;28.82;39.07
35307;BME280;21420;52.196;21.416;2023-04-20T11:41:55;100615.20;;;28.62;38.36
35307;BME280;21420;52.196;21.416;2023-04-20T11:44:25;100615.91;;;27.88;38.01
35307;BME280;21420;52.196;21.416;2023-04-20T11:46:55;100615.48;;;26.93;37.32
35307;BME280;21420;52.196;21.416;2023-04-20T11:49:26;100616.17;;;26.15;37.65
35307;BME280;21420;52.196;21.416;2023-04-20T11:51:54;100609.20;;;26.06;38.32
35307;BME280;21420;52.196;21.416;2023-04-20T11:54:21;100605.57;;;26.58;39.10
35307;BME280;21420;52.196;21.416;2023-04-20T11:56:49;100599.56;;;27.40;39.24
35307;BME280;21420;52.196;21.416;2023-04-20T11:59:16;100599.06;;;28.02;39.27
35307;BME280;21420;52.196;21.416;2023-04-20T12:01:46;100603.45;;;28.38;38.52
35307;BME280;21420;52.196;21.416;2023-04-20T12:04:13;100600.52;;;28.01;37.81
35307;BME280;21420;52.196;21.416;2023-04-20T12:06:41;100595.17;;;27.34;37.39
35307;BME280;21420;52.196;21.416;2023-04-20T12:09:08;100594.89;;;26.62;36.98
35307;BME280;21420;52.196;21.416;2023-04-20T12:11:35;100599.86;;;25.89;37.06
35307;BME280;21420;52.196;21.416;2023-04-20T12:14:02;100598.89;;;25.38;37.01
35307;BME280;21420;52.196;21.416;2023-04-20T12:16:30;100596.98;;;24.67;36.77
35307;BME280;21420;52.196;21.416;2023-04-20T12:18:57;100594.09;;;24.09;36.94
35307;BME280;21420;52.196;21.416;2023-04-20T12:21:23;100592.71;;;23.71;37.01
35307;BME280;21420;52.196;21.416;2023-04-20T12:23:50;100592.84;;;23.31;37.02
35307;BME280;21420;52.196;21.416;2023-04-20T12:26:17;100587.27;;;23.02;37.20
35307;BME280;21420;52.196;21.416;2023-04-20T12:28:44;100585.47;;;22.90;37.25
35307;BME280;21420;52.196;21.416;2023-04-20T12:31:11;100590.38;;;23.29;37.96
35307;BME280;21420;52.196;21.416;2023-04-20T12:33:37;100587.52;;;23.89;38.04
35307;BME280;21420;52.196;21.416;2023-04-20T12:36:04;100582.81;;;24.14;37.79
35307;BME280;21420;52.196;21.416;2023-04-20T12:38:31;100583.91;;;24.35;37.76
35307;BME280;21420;52.196;21.416;2023-04-20T12:40:58;100584.00;;;24.68;37.83
35307;BME280;21420;52.196;21.416;2023-04-20T12:43:24;100574.04;;;25.00;37.60
35307;BME280;21420;52.196;21.416;2023-04-20T12:45:51;100573.80;;;24.83;37.05
35307;BME280;21420;52.196;21.416;2023-04-20T12:48:18;100578.10;;;24.38;36.87
35307;BME280;21420;52.196;21.416;2023-04-20T12:50:45;100580.55;;;23.96;36.55
35307;BME280;21420;52.196;21.416;2023-04-20T12:53:11;100579.77;;;23.55;36.62